Tiempo atmosférico en la estación meteorológica de Astorga, León (919 m.)



Fecha
DESCASC
Temp. máxima en grados centígrados (hora)
DESCASC
Temp. mínima en grados centígrados (hora)
DESCASC
Temp. media en grados centígrados
DESCASC
Racha de viento máxima en m/sg (hora)
DESCASC
Velocidad máxima media en intervalos de 10 minutos(hora)
DESCASC
Precipitaciones diarias en mm
DESCASC
Precipitaciones de 00:00 a 06:00 en mm
DESCASC
Precipitaciones de 06:00 a 12:00 en mm
DESCASC
Precipitaciones de 12:00 a 18:00 en mm
DESCASC
Precipitaciones de 18:00 a 24:00 en mm
DESCASC
08-12-2019 12.3 (17:00) 2.2 (01:00) 7.3 10 (17:20) 5.56 (20:00) 0.2 0 0.2 0 0
07-12-2019 13.2 (16:00) -0.4 (07:30) 6.4 3.33 (12:10) 2.5 (12:10) 0 0 0 0 0
06-12-2019 12.3 (16:50) -0.5 (05:50) 5.9 3.89 (06:10) 3.06 (06:20) 0 0 0 0 0
05-12-2019 12.8 (11:10) -0.6 (-00:0) 6.1 7.5 (01:00) 4.72 (16:20) 0 0 0 0 0
04-12-2019 15.4 (15:00) -2.4 (-00:0) 6.5 4.72 (23:59) 3.06 (19:30) 0 0 0 0 0
03-12-2019 9.3 (13:20) -4.6 (-00:0) 2.4 5 (14:30) 3.61 (16:30) 0 0 0 0 0
02-12-2019 10.4 (12:20) -0.5 (-00:0) 4.9 12.22 (13:30) 8.89 (13:50) 0 0 0 0 0
01-12-2019 11.1 (15:20) 2.4 (00:00) 6.8 9.44 (17:20) 6.94 (17:20) 0.4 0.2 0.2 0 0
30-11-2019 12 (11:50) 3.4 (00:00) 7.7 13.33 (15:50) 7.5 (11:20) 2.4 0.6 1.8 0 0
29-11-2019 15.1 (15:00) 6.4 (00:00) 10.8 5.83 (01:30) 3.89 (16:30) 0.2 0 0 0 0.2
28-11-2019 14.2 (12:20) 6.2 (00:00) 10.2 10.28 (22:40) 4.44 (13:00) 3.4 0 0 3 0.4
27-11-2019 10.9 (14:50) 6.3 (00:00) 8.6 11.67 (00:10) 6.39 (00:10) 0.6 0 0.2 0.2 0.2
26-11-2019 16.2 (15:20) 5.7 (00:00) 11 16.11 (15:00) 10.83 (18:30) 0.8 0 0.2 0 0.6
25-11-2019 13.6 (12:50) 5.2 (00:00) 9.4 10.56 (14:00) 5.56 (14:00) 0 0 0 0 0
24-11-2019 9.3 (13:20) 3.5 (00:00) 6.4 8.89 (00:10) 4.72 (00:10) 1.4 0 0 0.2 1.2
23-11-2019 10 (14:30) 3.2 (00:00) 6.6 15.83 (05:00) 9.17 (05:10) 0.4 0.4 0 0 0
22-11-2019 12.7 (15:00) 1.9 (00:00) 7.3 15 (23:30) 10 (06:20) 4.6 0.4 1.4 0.6 2.2
21-11-2019 10.2 (15:50) 1 (00:00) 5.6 6.39 (12:30) 3.89 (12:30) 0.6 0.4 0.2 0 0
20-11-2019 8.3 (16:10) 2.7 (00:00) 5.5 9.17 (13:00) 6.94 (13:00) 3.4 0.2 3.2 0 0
19-11-2019 6.5 (11:50) -2.9 (-00:0) 1.8 4.72 (12:10) 3.06 (04:40) 1 0 0 0 1
18-11-2019 10.4 (14:30) 0 (00:00) 5.2 10 (12:10) 6.67 (13:30) 0 0 0 0 0
17-11-2019 10.5 (11:20) 2.1 (00:00) 6.3 14.17 (17:30) 6.39 (16:30) 1 0 0.8 0.2 0
16-11-2019 7.1 (14:50) -0.6 (-00:0) 3.2 12.5 (15:20) 6.11 (15:20) 0 0 0 0 0
15-11-2019 6.3 (15:50) 0.5 (00:00) 3.4 12.22 (15:30) 6.67 (14:00) 3 2.8 0 0.2 0
14-11-2019 5.9 (00:00) 0.3 (00:00) 3.1 14.72 (16:40) 7.5 (11:30) 20.8 4.4 0.6 6.6 9.2
13-11-2019 13.5 (12:50) 5.9 (00:00) 9.7 15.28 (23:10) 7.78 (23:00) 4.4 4.2 0 0 0.2
12-11-2019 9.1 (15:20) 3.2 (00:00) 6.2 8.61 (04:30) 4.44 (04:20) 8.4 0 0 1 7.4
11-11-2019 14.1 (12:40) 3.2 (23:59) 8.7 12.78 (11:10) 8.61 (11:40) 0 0 0 0 0
10-11-2019 6.7 (16:40) 2.6 (00:00) 4.6 12.22 (02:30) 7.22 (02:20) 0.8 0 0.4 0.4 0

Gráficas

Temp. máximas Temp. mínimas Temp. medias Precipitaciones Rachas de viento máximas Velocidades máximas media en intervalos de 10 minutos

Datos horarios

Fecha y hora oficial Temperatura (ºC) Velocidad del viento (km/h) Dirección del viento Racha (km/h) Dirección de racha Precipitación (mm) Presión (hPa) Tendencia (hPa) Humedad (%)
2019-12-09 23:00:00 1.4 7 Norte 8 Norte 0 -- -- 93
2019-12-09 22:00:00 2.6 6 Norte 12 Noroeste 0 -- -- 83
2019-12-09 21:00:00 2.9 4 Oeste 12 Norte 0 -- -- 90
2019-12-09 20:00:00 3.7 10 Nordeste 12 Nordeste 0 -- -- 88
2019-12-09 19:00:00 4.7 6 Norte 10 Este 0 -- -- 83
2019-12-09 18:00:00 5.6 9 Nordeste 17 Noroeste 0 -- -- 81
2019-12-09 17:00:00 8.8 12 Noroeste 18 Norte 0 -- -- 60
2019-12-09 16:00:00 9.7 8 Norte 23 Noroeste 0 -- -- 57
2019-12-09 15:00:00 9.3 13 Noroeste 27 Noroeste 0 -- -- 57
2019-12-09 14:00:00 9.1 13 Oeste 23 Oeste 0 -- -- 61
2019-12-09 13:00:00 11.2 7 Noroeste 25 Noroeste 0 -- -- 52
2019-12-09 12:00:00 13.3 9 Noroeste 22 Oeste 0 -- -- 41
2019-12-09 11:00:00 10.4 7 Nordeste 31 Oeste 0 -- -- 45
2019-12-09 10:00:00 9.7 12 Noroeste 34 Noroeste 0 -- -- 38
2019-12-09 09:00:00 8.2 11 Noroeste 39 Noroeste 0 -- -- 39
2019-12-09 08:00:00 8.5 16 Noroeste 35 Noroeste 0 -- -- 37
2019-12-09 07:00:00 7.9 17 Noroeste 31 Oeste 0 -- -- 38
2019-12-09 06:00:00 7.9 14 Noroeste 31 Noroeste 0 -- -- 38
2019-12-09 05:00:00 7.1 13 Noroeste 28 Noroeste 0 -- -- 41
2019-12-09 04:00:00 6.9 15 Noroeste 27 Norte 0 -- -- 45
2019-12-09 03:00:00 6 14 Noroeste 21 Noroeste 0 -- -- 54
2019-12-09 02:00:00 3.8 3 Norte 7 Oeste 0 -- -- 90
2019-12-09 01:00:00 5.2 6 Noroeste 15 Noroeste 0 -- -- 82
2019-12-09 00:00:00 6.1 14 Noroeste 24 Oeste 0 -- -- 81
2019-12-08 23:00:00 5.7 9 Oeste 17 Noroeste 0 -- -- 84
2019-12-08 22:00:00 6 6 Este 27 Noroeste 0 -- -- 89
2019-12-08 21:00:00 8.3 18 Noroeste 31 Noroeste 0 -- -- 84
2019-12-08 20:00:00 8.9 20 Noroeste 32 Noroeste 0 -- -- 84
2019-12-08 19:00:00 9.3 18 Noroeste 29 Noroeste 0 -- -- 86
2019-12-08 18:00:00 10.1 13 Noroeste 36 Noroeste 0 -- -- 84
2019-12-08 17:00:00 12.3 9 Oeste 25 Noroeste 0 -- -- 83
2019-12-08 16:00:00 9.8 2 Sur 12 Este 0 -- -- 98
2019-12-08 15:00:00 7.3 2 Sur 8 Sudoeste 0 -- -- 98
2019-12-08 14:00:00 5.6 3 Sur 11 Sudoeste 0 -- -- 99
2019-12-08 13:00:00 5.5 5 Sur 9 Sur 0 -- -- 98
2019-12-08 12:00:00 5 2 Noroeste 10 Sur 0.2 -- -- 100
2019-12-08 11:00:00 4.6 4 Este 8 Norte 0 -- -- 99
2019-12-08 10:00:00 3.9 3 Sur 6 Sudoeste 0 -- -- 99
2019-12-08 09:00:00 3.5 2 Este 8 Oeste 0 -- -- 100
2019-12-08 08:00:00 3.3 5 Sudoeste 7 Sudoeste 0 -- -- 100
2019-12-08 07:00:00 3.1 4 Sudoeste 6 Sudoeste 0 -- -- 100
2019-12-08 06:00:00 3 0 Calma 5 Sudoeste 0 -- -- 100
2019-12-08 05:00:00 2.8 0 Calma 5 Sudoeste 0 -- -- 100
2019-12-08 04:00:00 2.5 0 Calma 5 Sudoeste 0 -- -- 100
2019-12-08 03:00:00 2.4 3 Sur 6 Nordeste 0 -- -- 99
2019-12-08 02:00:00 2.5 3 Nordeste 6 Norte 0 -- -- 99
2019-12-08 01:00:00 2.2 2 Sudoeste 8 Sudoeste 0 -- -- 99
2019-12-08 00:00:00 2.9 3 Nordeste 6 Sudoeste 0 -- -- 98
2019-12-07 23:00:00 3.5 3 Sudeste 9 Norte 0 -- -- 98
2019-12-07 22:00:00 4.2 5 Norte 7 Norte 0 -- -- 97
2019-12-07 21:00:00 5 3 Sudeste 9 Sudeste 0 -- -- 95
2019-12-07 20:00:00 6.7 5 Sudoeste 7 Sur 0 -- -- 90
2019-12-07 19:00:00 7.5 5 Sur 7 Sur 0 -- -- 86
2019-12-07 18:00:00 8.5 0 Calma 9 Sudeste 0 -- -- 81
2019-12-07 17:00:00 11.7 6 Sudeste 12 Sur 0 -- -- 68
2019-12-07 16:00:00 13.2 5 Sur 10 Sudoeste 0 -- -- 62
2019-12-07 15:00:00 10.1 5 Sudeste 10 Sudeste 0 -- -- 71
2019-12-07 14:00:00 9.3 5 Sur 12 Sur 0 -- -- 74
2019-12-07 13:00:00 10.9 7 Sur 12 Sur 0 -- -- 66
2019-12-07 12:00:00 8.6 7 Sur 10 Sur 0 -- -- 73
2019-12-07 11:00:00 4.2 6 Norte 9 Norte 0 -- -- 88
2019-12-07 10:00:00 2.1 6 Norte 9 Nordeste 0 -- -- 90
2019-12-07 09:00:00 2.3 0 Calma 9 Norte 0 -- -- 97
2019-12-07 08:00:00 0.5 6 Norte 10 Norte 0 -- -- 98
2019-12-07 07:00:00 1 3 Sudoeste 9 Norte 0 -- -- 97
2019-12-07 06:00:00 0.9 5 Norte 12 Norte 0 -- -- 95
2019-12-07 05:00:00 0.9 5 Norte 9 Norte 0 -- -- 96
2019-12-07 04:00:00 2.1 2 Oeste 7 Nordeste 0 -- -- 97
2019-12-07 03:00:00 0.8 5 Norte 12 Norte 0 -- -- 96
2019-12-07 02:00:00 2 3 Nordeste 9 Nordeste 0 -- -- 94
2019-12-07 01:00:00 2.2 3 Sur 9 Noroeste 0 -- -- 92
2019-12-07 00:00:00 2.2 5 Nordeste 9 Nordeste 0 -- -- 88
2019-12-06 23:00:00 4.5 6 Norte 8 Noroeste 0 -- -- 86
2019-12-06 22:00:00 4.7 4 Norte 5 Norte 0 -- -- 84
2019-12-06 21:00:00 5 0 Calma 4 Sur 0 -- -- 83
2019-12-06 20:00:00 6.2 2 Nordeste 5 Nordeste 0 -- -- 79
2019-12-06 19:00:00 7.3 2 Sur 5 Noroeste 0 -- -- 75
2019-12-06 18:00:00 8.6 4 Norte 5 Noroeste 0 -- -- 68
2019-12-06 17:00:00 12.3 2 Sur 9 Sur 0 -- -- 55
2019-12-06 16:00:00 9.4 4 Sur 13 Sur 0 -- -- 62
2019-12-06 15:00:00 11.1 9 Sur 14 Sur 0 -- -- 58
2019-12-06 14:00:00 11.4 6 Sudeste 12 Sudeste 0 -- -- 54
2019-12-06 13:00:00 10.8 6 Sudeste 12 Sur 0 -- -- 58
2019-12-06 12:00:00 10.7 3 Nordeste 7 Este 0 -- -- 56
2019-12-06 11:00:00 6.8 0 Calma 5 Nordeste 0 -- -- 78
2019-12-06 10:00:00 3.6 0 Calma 7 Noroeste 0 -- -- 85
2019-12-06 09:00:00 1.3 9 Norte 13 Norte 0 -- -- 94
2019-12-06 08:00:00 -0.1 0 Calma 10 Norte 0 -- -- 93
2019-12-06 07:00:00 0.6 5 Norte 14 Norte 0 -- -- 91
2019-12-06 06:00:00 -0.3 10 Norte 13 Norte 0 -- -- 94
2019-12-06 05:00:00 -0.1 5 Norte 6 Noroeste 0 -- -- 93
2019-12-06 04:00:00 1.5 0 Calma 9 Oeste 0 -- -- 89
2019-12-06 03:00:00 4.9 7 Oeste 12 Oeste 0 -- -- 77
2019-12-06 02:00:00 4.9 8 Oeste 13 Oeste 0 -- -- 81
2019-12-06 01:00:00 3.8 4 Norte 12 Oeste 0 -- -- 88
2019-12-06 00:00:00 5.9 9 Oeste 12 Oeste 0 -- -- 84
2019-12-05 23:00:00 6.8 7 Oeste 9 Oeste 0 -- -- 80
2019-12-05 22:00:00 6.9 5 Oeste 12 Oeste 0 -- -- 81
2019-12-05 21:00:00 6.9 5 Sudoeste 8 Sudoeste 0 -- -- 82
2019-12-05 20:00:00 7.2 3 Sudoeste 10 Sur 0 -- -- 80
2019-12-05 19:00:00 7.5 8 Sur 15 Sur 0 -- -- 80
2019-12-05 18:00:00 8.2 9 Sudeste 19 Sudeste 0 -- -- 78
2019-12-05 17:00:00 9.5 14 Sur 24 Sur 0 -- -- 73
2019-12-05 16:00:00 11.6 15 Sur 21 Sur 0 -- -- 66
2019-12-05 15:00:00 12 14 Sur 22 Sudeste 0 -- -- 62
2019-12-05 14:00:00 12.7 11 Sur 18 Sur 0 -- -- 58
2019-12-05 13:00:00 11.6 10 Sur 14 Sur 0 -- -- 59
2019-12-05 12:00:00 8.5 12 Sudeste 17 Sudeste 0 -- -- 66
2019-12-05 11:00:00 12.4 4 Norte 6 Norte 0 -- -- 56
2019-12-05 10:00:00 2.8 3 Oeste 8 Norte 0 -- -- 85
2019-12-05 09:00:00 0.4 5 Noroeste 9 Noroeste 0 -- -- 92
2019-12-05 08:00:00 -0.2 8 Norte 9 Norte 0 -- -- 90
2019-12-05 07:00:00 0.7 9 Noroeste 12 Noroeste 0 -- -- 89
2019-12-05 06:00:00 0.9 6 Noroeste 12 Oeste 0 -- -- 89
2019-12-05 05:00:00 2.5 8 Oeste 12 Sudoeste 0 -- -- 83
2019-12-05 04:00:00 1.5 7 Oeste 10 Oeste 0 -- -- 89
2019-12-05 03:00:00 1.1 6 Oeste 19 Sudeste 0 -- -- 90
2019-12-05 02:00:00 3.3 13 Sudeste 21 Sudeste 0 -- -- 82
2019-12-05 01:00:00 6.5 16 Noroeste 27 Noroeste 0 -- -- 66
2019-12-05 00:00:00 4.7 10 Norte 17 Noroeste 0 -- -- 76
2019-12-04 23:00:00 2.9 4 Noroeste 10 Nordeste 0 -- -- 87
2019-12-04 22:00:00 3.7 2 Noroeste 10 Norte 0 -- -- 82
2019-12-04 21:00:00 4 4 Norte 11 Norte 0 -- -- 81
2019-12-04 20:00:00 3.9 10 Norte 14 Norte 0 -- -- 84
2019-12-04 19:00:00 5.5 9 Norte 13 Noroeste 0 -- -- 77
2019-12-04 18:00:00 8.7 7 Noroeste 8 Oeste 0 -- -- 61
2019-12-04 17:00:00 11.1 0 Calma 8 Nordeste 0 -- -- 54
2019-12-04 16:00:00 12.5 6 Nordeste 12 Nordeste 0 -- -- 49
2019-12-04 15:00:00 15.4 4 Sudeste 10 Nordeste 0 -- -- 44
2019-12-04 14:00:00 12.2 6 Sur 12 Sur 0 -- -- 52
2019-12-04 13:00:00 12.6 4 Norte 8 Nordeste 0 -- -- 52
2019-12-04 12:00:00 11.9 3 Norte 8 Noroeste 0 -- -- 53
2019-12-04 11:00:00 9.7 0 Calma 8 Norte 0 -- -- 65
2019-12-04 10:00:00 3.5 5 Norte 10 Oeste 0 -- -- 79
2019-12-04 09:00:00 0.1 4 Noroeste 6 Norte 0 -- -- 94
2019-12-04 08:00:00 0.7 0 Calma 5 Noroeste 0 -- -- 90
2019-12-04 07:00:00 0.4 0 Calma 6 Norte 0 -- -- 91
2019-12-04 06:00:00 -0.3 7 Norte 12 Norte 0 -- -- 91
2019-12-04 05:00:00 0.2 9 Noroeste 13 Noroeste 0 -- -- 90
2019-12-04 04:00:00 -0.3 8 Norte 11 Norte 0 -- -- 94
2019-12-04 03:00:00 -0.5 0 Calma 6 Norte 0 -- -- 95
2019-12-04 02:00:00 -1.3 5 Norte 8 Noroeste 0 -- -- 97
2019-12-04 01:00:00 -1.7 6 Norte 9 Norte 0 -- -- 97
2019-12-04 00:00:00 -2.3 6 Norte 9 Norte 0 -- -- 95
2019-12-03 23:00:00 -0.4 6 Oeste 9 Oeste 0 -- -- 94
2019-12-03 22:00:00 0.4 3 Oeste 6 Oeste 0 -- -- 90
2019-12-03 21:00:00 1 2 Sudoeste 8 Sur 0 -- -- 84
2019-12-03 20:00:00 0.7 3 Sudoeste 8 Sudeste 0 -- -- 81
2019-12-03 19:00:00 2.2 3 Sur 6 Sudoeste 0 -- -- 72
2019-12-03 18:00:00 4.1 3 Sur 12 Sur 0 -- -- 64
2019-12-03 17:00:00 6.9 10 Sur 17 Sudeste 0 -- -- 54
2019-12-03 16:00:00 8 11 Sur 17 Sur 0 -- -- 51
2019-12-03 15:00:00 8.6 8 Sur 18 Sur 0 -- -- 48
2019-12-03 14:00:00 8.3 8 Sur 14 Sur 0 -- -- 48
2019-12-03 13:00:00 7.7 8 Sur 14 Sur 0 -- -- 49
2019-12-03 12:00:00 6.6 5 Sur 9 Sur 0 -- -- 57
2019-12-03 11:00:00 5.9 3 Sudoeste 7 Norte 0 -- -- 59
2019-12-03 10:00:00 0.7 3 Sur 9 Oeste 0 -- -- 78
2019-12-03 09:00:00 -3.9 4 Sudoeste 8 Noroeste 0 -- -- 92
2019-12-03 08:00:00 -4.6 6 Norte 8 Norte 0 -- -- 91
2019-12-03 07:00:00 -2.5 2 Sur 7 Norte 0 -- -- 86
2019-12-03 06:00:00 -3.6 2 Noroeste 9 Norte 0 -- -- 89
2019-12-03 05:00:00 -3.7 2 Nordeste 9 Norte 0 -- -- 90
2019-12-03 04:00:00 -3.3 5 Norte 10 Norte 0 -- -- 88
2019-12-03 03:00:00 -3.5 3 Nordeste 7 Norte 0 -- -- 91
2019-12-03 02:00:00 -2.4 4 Nordeste 8 Norte 0 -- -- 87
2019-12-03 01:00:00 0.2 3 Noroeste 8 Sudoeste 0 -- -- 75
2019-12-03 00:00:00 1.4 8 Sudoeste 10 Sudoeste 0 -- -- 70
2019-12-02 23:00:00 0.6 5 Sudeste 12 Norte 0 -- -- 77
2019-12-02 22:00:00 1.2 9 Norte 14 Norte 0 -- -- 74
2019-12-02 21:00:00 1.8 11 Norte 16 Norte 0 -- -- 75
2019-12-02 20:00:00 2.7 12 Norte 27 Norte 0 -- -- 75
2019-12-02 19:00:00 4.2 22 Nordeste 31 Nordeste 0 -- -- 72
2019-12-02 18:00:00 5.4 15 Nordeste 36 Norte 0 -- -- 70
2019-12-02 17:00:00 8.1 26 Norte 37 Norte 0 -- -- 60
2019-12-02 16:00:00 9.3 29 Norte 39 Norte 0 -- -- 58
2019-12-02 15:00:00 9.9 27 Nordeste 41 Nordeste 0 -- -- 56
2019-12-02 14:00:00 10.1 30 Norte 44 Norte 0 -- -- 55
2019-12-02 13:00:00 9.6 26 Nordeste 36 Norte 0 -- -- 58
2019-12-02 12:00:00 10 22 Norte 30 Norte 0 -- -- 59
2019-12-02 11:00:00 9.8 11 Nordeste 17 Norte 0 -- -- 60
2019-12-02 10:00:00 8.7 9 Norte 14 Norte 0 -- -- 62
2019-12-02 09:00:00 3.5 13 Norte 23 Norte 0 -- -- 80
2019-12-02 08:00:00 3.5 15 Norte 22 Norte 0 -- -- 80
2019-12-02 07:00:00 2 8 Norte 19 Norte 0 -- -- 83
2019-12-02 06:00:00 1.3 10 Norte 17 Norte 0 -- -- 86
2019-12-02 05:00:00 0.4 2 Noroeste 9 Norte 0 -- -- 92
2019-12-02 04:00:00 0.4 4 Norte 12 Noroeste 0 -- -- 89
2019-12-02 03:00:00 1.6 10 Noroeste 15 Noroeste 0 -- -- 86
2019-12-02 02:00:00 1.3 7 Norte 12 Norte 0 -- -- 86
2019-12-02 01:00:00 2.3 9 Norte 12 Norte 0 -- -- 84
2019-12-02 00:00:00 2.6 2 Norte 12 Norte 0 -- -- 83
2019-12-01 23:00:00 2.9 2 Sur 15 Norte 0 -- -- 86
2019-12-01 22:00:00 3.1 9 Norte 15 Norte 0 -- -- 86
2019-12-01 21:00:00 3.7 7 Norte 13 Norte 0 -- -- 86
2019-12-01 20:00:00 4.7 10 Norte 15 Norte 0 -- -- 82
2019-12-01 19:00:00 3.9 7 Norte 22 Nordeste 0 -- -- 85
2019-12-01 18:00:00 6.3 19 Nordeste 34 Norte 0 -- -- 74
2019-12-01 17:00:00 7.9 21 Nordeste 32 Nordeste 0 -- -- 70
2019-12-01 16:00:00 10.6 18 Nordeste 30 Nordeste 0 -- -- 60
2019-12-01 15:00:00 10.9 5 Este 14 Nordeste 0 -- -- 73
2019-12-01 14:00:00 8.8 10 Este 18 Este 0 -- -- 77
2019-12-01 13:00:00 7.7 9 Nordeste 25 Nordeste 0 -- -- 87
2019-12-01 12:00:00 7 15 Nordeste 25 Nordeste 0 -- -- 88
2019-12-01 11:00:00 5.6 8 Nordeste 17 Nordeste 0.2 -- -- 98
2019-12-01 10:00:00 5 5 Norte 7 Norte 0 -- -- 98
2019-12-01 09:00:00 4.7 2 Sudeste 10 Sudeste 0 -- -- 97
2019-12-01 08:00:00 4.3 6 Sudeste 17 Sudeste 0 -- -- 98
2019-12-01 07:00:00 4.3 13 Sudeste 26 Sur 0 -- -- 98
2019-12-01 06:00:00 4.8 16 Sur 23 Sudeste 0 -- -- 99
2019-12-01 05:00:00 4.9 18 Sur 25 Sur 0 -- -- 99
2019-12-01 04:00:00 4.8 17 Sur 25 Sur 0.2 -- -- 98
2019-12-01 03:00:00 4.5 8 Sudeste 13 Sudeste 0 -- -- 97
2019-12-01 02:00:00 3.5 5 Norte 10 Norte 0 -- -- 95
2019-12-01 01:00:00 3.6 6 Norte 9 Sudeste 0 -- -- 93
2019-12-01 00:00:00 4.1 6 Sudeste 12 Este 0 -- -- 90
2019-11-30 23:00:00 4.4 5 Nordeste 9 Este 0 -- -- 89
2019-11-30 22:00:00 4.6 3 Norte 10 Sudeste 0 -- -- 87
2019-11-30 21:00:00 5.7 6 Oeste 23 Oeste 0 -- -- 78
2019-11-30 20:00:00 7 13 Oeste 23 Oeste 0 -- -- 70
2019-11-30 19:00:00 6 4 Sur 26 Noroeste 0 -- -- 86
2019-11-30 18:00:00 7.1 12 Noroeste 23 Oeste 0 -- -- 79
2019-11-30 17:00:00 8.2 15 Oeste 40 Noroeste 0 -- -- 67
2019-11-30 16:00:00 10.6 23 Noroeste 48 Oeste 0 -- -- 58
2019-11-30 15:00:00 11.1 23 Noroeste 46 Oeste 0 -- -- 57
2019-11-30 14:00:00 9.1 21 Oeste 43 Oeste 0 -- -- 67
2019-11-30 13:00:00 8.6 17 Noroeste 41 Oeste 0 -- -- 78
2019-11-30 12:00:00 10.5 18 Oeste 44 Noroeste 0 -- -- 75
2019-11-30 11:00:00 9.4 18 Oeste 34 Noroeste 0.4 -- -- 86
2019-11-30 10:00:00 10.1 13 Noroeste 21 Noroeste 0.6 -- -- 98
2019-11-30 09:00:00 9.2 5 Nordeste 12 Este 0 -- -- 99
2019-11-30 08:00:00 8.4 5 Nordeste 10 Norte 0.2 -- -- 99
2019-11-30 07:00:00 8.1 7 Norte 12 Sur 0.6 -- -- 99
2019-11-30 06:00:00 7.8 5 Norte 10 Norte 0 -- -- 99
2019-11-30 05:00:00 7.6 5 Norte 8 Norte 0 -- -- 99
2019-11-30 04:00:00 7.5 3 Nordeste 6 Este 0 -- -- 99
2019-11-30 03:00:00 7.6 3 Este 5 Este 0 -- -- 98
2019-11-30 02:00:00 7.6 0 Calma 5 Sudeste 0.4 -- -- 98
2019-11-30 01:00:00 7.8 2 Sudeste 6 Nordeste 0.2 -- -- 98
2019-11-30 00:00:00 7.5 4 Norte 9 Norte 0 -- -- 97
2019-11-29 23:00:00 7.8 8 Nordeste 12 Norte 0.2 -- -- 96
2019-11-29 22:00:00 7.8 10 Norte 14 Norte 0 -- -- 95
2019-11-29 21:00:00 8 6 Norte 13 Norte 0 -- -- 94
2019-11-29 20:00:00 7.9 9 Norte 11 Norte 0 -- -- 94
2019-11-29 19:00:00 8.6 6 Norte 7 Norte 0 -- -- 90
2019-11-29 18:00:00 10.6 2 Este 13 Sudeste 0 -- -- 81
2019-11-29 17:00:00 11.7 10 Sudeste 20 Sur 0 -- -- 78
2019-11-29 16:00:00 13.6 9 Sudeste 16 Sur 0 -- -- 69
2019-11-29 15:00:00 15.1 8 Sur 16 Sur 0 -- -- 62
2019-11-29 14:00:00 14.7 8 Sudeste 14 Sudoeste 0 -- -- 62
2019-11-29 13:00:00 14.2 6 Sur 12 Sur 0 -- -- 63
2019-11-29 12:00:00 13.2 5 Sur 10 Sur 0 -- -- 72
2019-11-29 11:00:00 9.2 5 Noroeste 10 Noroeste 0 -- -- 87
2019-11-29 10:00:00 7.8 10 Oeste 13 Norte 0 -- -- 91
2019-11-29 09:00:00 6.6 9 Noroeste 10 Norte 0 -- -- 93
2019-11-29 08:00:00 7.3 9 Noroeste 12 Noroeste 0 -- -- 93
2019-11-29 07:00:00 6.9 4 Sudoeste 9 Sudoeste 0 -- -- 93
2019-11-29 06:00:00 7.8 3 Oeste 6 Norte 0 -- -- 90
2019-11-29 05:00:00 8.3 5 Noroeste 12 Noroeste 0 -- -- 86
2019-11-29 04:00:00 8.9 9 Noroeste 17 Oeste 0 -- -- 86
2019-11-29 03:00:00 8.1 5 Oeste 18 Oeste 0 -- -- 92
2019-11-29 02:00:00 9.7 10 Oeste 21 Oeste 0 -- -- 85
2019-11-29 01:00:00 10.1 9 Oeste 21 Sudoeste 0 -- -- 84
2019-11-29 00:00:00 9.8 9 Oeste 16 Sudoeste 0 -- -- 85
2019-11-28 23:00:00 10 6 Oeste 37 Oeste 0 -- -- 88
2019-11-28 22:00:00 10.5 12 Oeste 35 Oeste 0 -- -- 90
2019-11-28 21:00:00 9.1 5 Oeste 18 Sudeste 0 -- -- 98
2019-11-28 20:00:00 8.7 0 Calma 8 Sur 0.2 -- -- 97
2019-11-28 19:00:00 8.8 6 Sur 14 Sur 0.2 -- -- 97
2019-11-28 18:00:00 9.1 9 Sur 10 Sur 1.2 -- -- 96
2019-11-28 17:00:00 9.7 3 Sudeste 9 Sudeste 1 -- -- 93
2019-11-28 16:00:00 10 6 Oeste 27 Sudoeste 0.6 -- -- 88
2019-11-28 15:00:00 11.2 7 Sudoeste 17 Sudoeste 0.2 -- -- 82
2019-11-28 14:00:00 13.1 6 Sudeste 23 Sur 0 -- -- 74
2019-11-28 13:00:00 13.4 16 Sudoeste 27 Sur 0 -- -- 75
2019-11-28 12:00:00 11 5 Este 8 Este 0 -- -- 90
2019-11-28 11:00:00 8.9 5 Sur 13 Sur 0 -- -- 93
2019-11-28 10:00:00 7.7 6 Noroeste 10 Sudeste 0 -- -- 96
2019-11-28 09:00:00 7.1 3 Noroeste 9 Este 0 -- -- 99
2019-11-28 08:00:00 6.2 4 Nordeste 12 Este 0 -- -- 98
2019-11-28 07:00:00 6.9 5 Este 11 Este 0 -- -- 98
2019-11-28 06:00:00 7 4 Este 10 Este 0 -- -- 97
2019-11-28 05:00:00 7.2 6 Norte 13 Sudeste 0 -- -- 95
2019-11-28 04:00:00 7.1 6 Sur 17 Sudeste 0 -- -- 94
2019-11-28 03:00:00 7.9 8 Sudeste 13 Sudeste 0 -- -- 90
2019-11-28 02:00:00 8.1 8 Oeste 18 Oeste 0 -- -- 92
2019-11-28 01:00:00 6.6 4 Sur 10 Sudeste 0 -- -- 94
2019-11-28 00:00:00 7.1 5 Oeste 14 Oeste 0.2 -- -- 92
2019-11-27 23:00:00 6.4 3 Sur 10 Sudeste 0 -- -- 92
2019-11-27 22:00:00 6.9 3 Sur 7 Sur 0 -- -- 89
2019-11-27 21:00:00 8 3 Sudeste 12 Sudeste 0 -- -- 83
2019-11-27 20:00:00 8 4 Sudeste 24 Oeste 0 -- -- 83
2019-11-27 19:00:00 8.7 10 Oeste 15 Sudoeste 0 -- -- 75
2019-11-27 18:00:00 8.5 6 Oeste 28 Oeste 0 -- -- 77
2019-11-27 17:00:00 10 18 Oeste 32 Sudoeste 0 -- -- 68
2019-11-27 16:00:00 9.4 15 Sudoeste 34 Oeste 0 -- -- 72
2019-11-27 15:00:00 10.2 19 Noroeste 37 Oeste 0 -- -- 72
2019-11-27 14:00:00 9.1 20 Oeste 35 Oeste 0.2 -- -- 82
2019-11-27 06:00:00 7.9 9 Sudoeste 33 Oeste 0 -- -- 77
2019-11-27 05:00:00 8 11 Sudoeste 29 Oeste 0 -- -- 78
2019-11-27 04:00:00 7.9 9 Sudoeste 36 Sudoeste 0 -- -- 76
2019-11-27 03:00:00 8.3 19 Oeste 33 Oeste 0 -- -- 74
2019-11-27 02:00:00 7 6 Sudeste 22 Sur 0 -- -- 74
2019-11-27 01:00:00 6.7 9 Sudoeste 42 Oeste 0 -- -- 74
2019-11-27 00:00:00 7.5 26 Oeste 53 Oeste 0 -- -- 69
2019-11-26 23:00:00 7.6 31 Oeste 49 Oeste 0 -- -- 68
2019-11-26 22:00:00 7.5 18 Oeste 49 Oeste 0 -- -- 79
2019-11-26 21:00:00 8.6 31 Oeste 55 Oeste 0 -- -- 72
2019-11-26 20:00:00 8.3 28 Oeste 50 Oeste 0 -- -- 82
2019-11-26 19:00:00 9.4 17 Oeste 55 Oeste 0.6 -- -- 88
2019-11-26 18:00:00 12 17 Sudoeste 46 Oeste 0 -- -- 66
2019-11-26 17:00:00 14.9 22 Sudoeste 49 Sudoeste 0 -- -- 50
2019-11-26 16:00:00 15.2 24 Sudoeste 48 Oeste 0 -- -- 49
2019-11-26 15:00:00 14.8 32 Sudoeste 58 Sur 0 -- -- 49
2019-11-26 14:00:00 14.4 26 Sudoeste 51 Sudoeste 0 -- -- 56
2019-11-26 13:00:00 15.1 18 Sudoeste 44 Sudoeste 0 -- -- 54
2019-11-26 12:00:00 15.9 7 Sudoeste 19 Sudeste 0 -- -- 59
2019-11-26 11:00:00 12.4 9 Norte 19 Norte 0 -- -- 84
2019-11-26 10:00:00 8.5 8 Norte 11 Norte 0 -- -- 97
2019-11-26 09:00:00 7.4 3 Sudeste 8 Sur 0 -- -- 99
2019-11-26 08:00:00 7 3 Norte 8 Noroeste 0.2 -- -- 99
2019-11-26 07:00:00 6.6 6 Norte 14 Norte 0 -- -- 99
2019-11-26 06:00:00 6.4 8 Norte 13 Norte 0 -- -- 99
2019-11-26 05:00:00 6 8 Norte 12 Norte 0 -- -- 98
2019-11-26 04:00:00 5.7 9 Norte 15 Nordeste 0 -- -- 98
2019-11-26 03:00:00 5.9 9 Nordeste 13 Nordeste 0 -- -- 96
2019-11-26 02:00:00 6.4 0 Calma 5 Noroeste 0 -- -- 95
2019-11-26 01:00:00 7.4 3 Sur 9 Oeste 0 -- -- 93
2019-11-26 00:00:00 7 3 Sur 8 Norte 0 -- -- 92
2019-11-25 23:00:00 7.4 3 Nordeste 7 Noroeste 0 -- -- 92
2019-11-25 22:00:00 7.7 0 Calma 6 Sudeste 0 -- -- 91
2019-11-25 21:00:00 9 6 Noroeste 18 Noroeste 0 -- -- 84
2019-11-25 20:00:00 9.3 7 Oeste 13 Oeste 0 -- -- 85
2019-11-25 19:00:00 8.8 3 Sudoeste 9 Sudoeste 0 -- -- 86
2019-11-25 18:00:00 9.7 4 Este 16 Noroeste 0 -- -- 81
2019-11-25 17:00:00 11 9 Noroeste 23 Oeste 0 -- -- 75
2019-11-25 16:00:00 11.3 13 Noroeste 31 Noroeste 0 -- -- 74
2019-11-25 15:00:00 11.3 15 Noroeste 35 Noroeste 0 -- -- 73
2019-11-25 14:00:00 12.3 20 Noroeste 38 Oeste 0 -- -- 66
2019-11-25 13:00:00 13.2 17 Noroeste 37 Oeste 0 -- -- 68
2019-11-25 12:00:00 11.1 12 Oeste 33 Noroeste 0 -- -- 77
2019-11-25 11:00:00 11.4 7 Sudoeste 23 Oeste 0 -- -- 75
2019-11-25 10:00:00 9.3 12 Oeste 23 Oeste 0 -- -- 84
2019-11-25 09:00:00 8.9 14 Noroeste 32 Oeste 0 -- -- 83
2019-11-25 08:00:00 8.5 10 Oeste 19 Sudoeste 0 -- -- 91
2019-11-25 07:00:00 9.4 7 Oeste 13 Oeste 0 -- -- 86
2019-11-25 06:00:00 9.7 3 Oeste 28 Oeste 0 -- -- 83
2019-11-25 05:00:00 9 5 Oeste 26 Oeste 0 -- -- 86
2019-11-25 04:00:00 9.4 8 Oeste 37 Sudoeste 0 -- -- 82
2019-11-25 03:00:00 7.5 7 Sudoeste 18 Noroeste 0 -- -- 96
2019-11-25 02:00:00 5.3 7 Sudoeste 13 Oeste 0 -- -- 100
2019-11-25 01:00:00 5.3 5 Norte 10 Norte 0 -- -- 99
2019-11-25 00:00:00 5.7 10 Norte 14 Norte 0.2 -- -- 99
2019-11-24 23:00:00 5.5 7 Norte 9 Norte 0 -- -- 99
2019-11-24 22:00:00 5.5 2 Norte 8 Norte 0.2 -- -- 98
2019-11-24 21:00:00 5.4 2 Noroeste 9 Norte 0.2 -- -- 98
2019-11-24 20:00:00 5.3 7 Norte 12 Norte 0.4 -- -- 97
2019-11-24 19:00:00 5.4 7 Norte 16 Norte 0.2 -- -- 97
2019-11-24 18:00:00 5.3 14 Norte 19 Norte 0.2 -- -- 96
2019-11-24 17:00:00 5.8 12 Norte 17 Norte 0 -- -- 90
2019-11-24 16:00:00 6.6 9 Norte 13 Norte 0 -- -- 85
2019-11-24 15:00:00 7.9 3 Sudeste 13 Sudeste 0 -- -- 69
2019-11-24 14:00:00 8 7 Sudeste 14 Sur 0 -- -- 69
2019-11-24 13:00:00 7.1 10 Sudeste 16 Sur 0 -- -- 73
2019-11-24 12:00:00 6 9 Sur 12 Sudoeste 0 -- -- 78
2019-11-24 11:00:00 6.3 5 Noroeste 14 Noroeste 0 -- -- 79
2019-11-24 10:00:00 5.7 4 Sur 10 Oeste 0 -- -- 79
2019-11-24 09:00:00 4.8 5 Oeste 15 Oeste 0 -- -- 80
2019-11-24 08:00:00 4.1 6 Nordeste 14 Norte 0 -- -- 78
2019-11-24 07:00:00 3.7 5 Sudeste 13 Noroeste 0 -- -- 81
2019-11-24 06:00:00 3.9 6 Noroeste 29 Noroeste 0 -- -- 82
2019-11-24 05:00:00 4.1 12 Noroeste 30 Oeste 0 -- -- 82
2019-11-24 04:00:00 4.3 15 Noroeste 29 Noroeste 0 -- -- 84
2019-11-24 03:00:00 3.7 9 Sudoeste 25 Oeste 0 -- -- 86
2019-11-24 02:00:00 4.3 6 Oeste 24 Oeste 0 -- -- 83
2019-11-24 01:00:00 4.3 11 Noroeste 32 Noroeste 0 -- -- 84
2019-11-24 00:00:00 4.7 16 Noroeste 28 Oeste 0 -- -- 83
2019-11-23 23:00:00 4.5 13 Noroeste 28 Oeste 0 -- -- 83
2019-11-23 22:00:00 4.8 13 Oeste 26 Oeste 0 -- -- 83
2019-11-23 21:00:00 4.3 9 Oeste 21 Oeste 0 -- -- 86
2019-11-23 20:00:00 4.8 10 Oeste 18 Oeste 0 -- -- 83
2019-11-23 19:00:00 4.8 7 Oeste 29 Noroeste 0 -- -- 83
2019-11-23 18:00:00 4.7 15 Noroeste 40 Oeste 0 -- -- 85
2019-11-23 17:00:00 6.8 22 Noroeste 49 Noroeste 0 -- -- 76
2019-11-23 16:00:00 8.5 25 Noroeste 47 Noroeste 0 -- -- 67
2019-11-23 15:00:00 9.1 20 Noroeste 43 Oeste 0 -- -- 68
2019-11-23 14:00:00 9.7 20 Noroeste 38 Noroeste 0 -- -- 62
2019-11-23 13:00:00 8.8 17 Noroeste 45 Norte 0 -- -- 70
2019-11-23 12:00:00 9.1 17 Noroeste 44 Noroeste 0 -- -- 65
2019-11-23 11:00:00 7.6 25 Noroeste 43 Noroeste 0 -- -- 65
2019-11-23 10:00:00 6.3 21 Noroeste 40 Oeste 0 -- -- 76
2019-11-23 09:00:00 4.2 18 Noroeste 38 Noroeste 0 -- -- 84
2019-11-23 08:00:00 3.6 18 Noroeste 40 Noroeste 0 -- -- 83
2019-11-23 07:00:00 3.6 23 Noroeste 50 Noroeste 0 -- -- 81
2019-11-23 06:00:00 3.7 27 Noroeste 55 Oeste 0 -- -- 80
2019-11-23 05:00:00 4 27 Noroeste 57 Oeste 0 -- -- 80
2019-11-23 04:00:00 3.5 28 Oeste 55 Noroeste 0.2 -- -- 79
2019-11-23 03:00:00 4 25 Oeste 44 Oeste 0 -- -- 87
2019-11-23 02:00:00 3.2 21 Oeste 43 Oeste 0.2 -- -- 88
2019-11-23 01:00:00 4.3 13 Sudoeste 37 Oeste 0 -- -- 86
2019-11-23 00:00:00 5.1 24 Oeste 54 Oeste 0.8 -- -- 88
2019-11-22 23:00:00 6.1 18 Oeste 41 Sudoeste 0 -- -- 84
2019-11-22 22:00:00 6.5 26 Oeste 48 Oeste 0 -- -- 81
2019-11-22 21:00:00 6.6 23 Oeste 31 Oeste 0 -- -- 84
2019-11-22 20:00:00 5.2 6 Sudoeste 19 Sur 0 -- -- 92
2019-11-22 19:00:00 5.4 6 Sudoeste 14 Sudoeste 1.4 -- -- 93
2019-11-22 18:00:00 6.1 11 Sudoeste 31 Oeste 0 -- -- 85
2019-11-22 17:00:00 7.2 19 Oeste 48 Sudoeste 0.2 -- -- 82
2019-11-22 16:00:00 9.8 26 Oeste 48 Oeste 0 -- -- 69
2019-11-22 15:00:00 12.7 23 Sudoeste 39 Sudoeste 0.2 -- -- 63
2019-11-22 14:00:00 9.9 13 Oeste 44 Sudoeste 0.2 -- -- 89
2019-11-22 13:00:00 11.8 18 Sur 29 Sur 0 -- -- 87
2019-11-22 12:00:00 8.4 25 Sur 37 Sur 0.4 -- -- 97
2019-11-22 11:00:00 7.3 23 Sur 36 Sur 0.2 -- -- 99
2019-11-22 10:00:00 6.3 22 Sur 49 Sur 0.2 -- -- 98
2019-11-22 09:00:00 6 25 Sur 39 Sur 0.2 -- -- 98
2019-11-22 08:00:00 5.5 14 Sudeste 31 Sur 0.2 -- -- 98
2019-11-22 07:00:00 5.3 31 Sur 52 Sur 0.2 -- -- 95
2019-11-22 06:00:00 5.1 27 Sur 38 Sur 0.4 -- -- 94
2019-11-22 05:00:00 4.8 19 Sur 31 Sur 0 -- -- 98
2019-11-22 04:00:00 4.6 26 Sur 33 Sur 0 -- -- 97
2019-11-22 03:00:00 3.7 10 Sudeste 15 Sudeste 0 -- -- 95
2019-11-22 02:00:00 2.1 3 Nordeste 8 Este 0 -- -- 95
2019-11-22 01:00:00 1.9 5 Norte 7 Norte 0 -- -- 94
2019-11-22 00:00:00 2.3 4 Norte 8 Nordeste 0 -- -- 94
2019-11-21 23:00:00 2.5 5 Nordeste 10 Sudeste 0 -- -- 91
2019-11-21 22:00:00 2.5 9 Norte 13 Norte 0 -- -- 92
2019-11-21 21:00:00 2.9 9 Norte 13 Norte 0 -- -- 92
2019-11-21 20:00:00 2.7 4 Nordeste 9 Norte 0 -- -- 92
2019-11-21 19:00:00 3.1 7 Norte 10 Norte 0 -- -- 91
2019-11-21 18:00:00 4.6 9 Norte 12 Noroeste 0 -- -- 85
2019-11-21 17:00:00 6.6 9 Noroeste 21 Norte 0 -- -- 74
2019-11-21 16:00:00 10.1 9 Noroeste 21 Noroeste 0 -- -- 59
2019-11-21 15:00:00 9.5 10 Noroeste 18 Noroeste 0 -- -- 61
2019-11-21 14:00:00 8.5 7 Sudoeste 19 Oeste 0 -- -- 63
2019-11-21 13:00:00 8.9 8 Oeste 23 Oeste 0 -- -- 63
2019-11-21 12:00:00 7 9 Oeste 19 Oeste 0 -- -- 71
2019-11-21 11:00:00 6.6 0 Calma 6 Sur 0 -- -- 74
2019-11-21 10:00:00 8.2 0 Calma 7 Sur 0 -- -- 74
2019-11-21 09:00:00 1.4 4 Este 10 Oeste 0 -- -- 99
2019-11-21 08:00:00 -- -- -- -- -- -- -- -- --
2019-11-21 07:00:00 -- -- -- -- -- -- -- -- --
2019-11-21 06:00:00 -- -- -- -- -- -- -- -- --
2019-11-21 05:00:00 -- -- -- -- -- -- -- -- --
2019-11-21 04:00:00 -- -- -- -- -- -- -- -- --
2019-11-21 03:00:00 -- -- -- -- -- -- -- -- --
2019-11-21 02:00:00 -- -- -- -- -- -- -- -- --
2019-11-21 01:00:00 -- -- -- -- -- -- -- -- --
2019-11-21 00:00:00 -- -- -- -- -- -- -- -- --
2019-11-20 23:00:00 -- -- -- -- -- -- -- -- --
2019-11-20 22:00:00 -- -- -- -- -- -- -- -- --
2019-11-20 21:00:00 4 0 Calma 5 Este 0 -- -- 96
2019-11-20 20:00:00 4.6 3 Norte 16 Sur 0 -- -- 93
2019-11-20 19:00:00 5.1 14 Sur 23 Sudoeste 0 -- -- 92
2019-11-20 18:00:00 5.1 13 Sur 31 Sur 0 -- -- 91
2019-11-20 17:00:00 7.3 19 Sur 30 Sur 0 -- -- 82
2019-11-20 16:00:00 8.1 18 Sur 28 Sur 0 -- -- 80
2019-11-20 15:00:00 6.6 16 Sur 27 Sur 0 -- -- 90
2019-11-20 14:00:00 6 19 Sur 29 Sur 0 -- -- 95
2019-11-20 13:00:00 5.6 25 Sur 33 Sur 0 -- -- 99
2019-11-20 12:00:00 5 13 Sur 18 Sudeste 0.4 -- -- 100
2019-11-20 11:00:00 4.4 10 Sudeste 16 Sur 0.8 -- -- 100
2019-11-20 10:00:00 4.2 12 Sur 16 Sudeste 0.4 -- -- 100
2019-11-20 09:00:00 4 12 Sur 14 Sudeste 1 -- -- 99
2019-11-20 08:00:00 4 8 Sur 13 Sudeste 0.4 -- -- 99
2019-11-20 07:00:00 4 6 Sudeste 12 Sudeste 0.2 -- -- 99
2019-11-20 06:00:00 3.9 5 Sudeste 10 Este 0.2 -- -- 99
2019-11-20 05:00:00 3.8 5 Este 8 Este 0 -- -- 99
2019-11-20 04:00:00 3.8 5 Sudeste 9 Sudeste 0 -- -- 99
2019-11-20 03:00:00 3.7 4 Sudeste 10 Este 0 -- -- 98
2019-11-20 02:00:00 3.7 4 Sudeste 10 Sudeste 0 -- -- 98
2019-11-20 01:00:00 3.6 6 Este 10 Este 0 -- -- 97
2019-11-20 00:00:00 3.4 5 Norte 8 Norte 1 -- -- 96
2019-11-19 23:00:00 3.6 5 Norte 8 Norte 0 -- -- 94
2019-11-19 22:00:00 4.1 5 Norte 7 Norte 0 -- -- 88
2019-11-19 21:00:00 4.3 3 Nordeste 4 Nordeste 0 -- -- 86
2019-11-19 20:00:00 4.4 0 Calma 5 Este 0 -- -- 83
2019-11-19 19:00:00 4.7 3 Este 5 Este 0 -- -- 81
2019-11-19 18:00:00 5 2 Este 6 Sur 0 -- -- 77
2019-11-19 17:00:00 5.7 0 Calma 8 Nordeste 0 -- -- 75
2019-11-19 16:00:00 5.6 5 Nordeste 8 Nordeste 0 -- -- 74
2019-11-19 15:00:00 5.1 5 Sur 10 Sudeste 0 -- -- 75
2019-11-19 14:00:00 5.9 5 Sur 13 Sudeste 0 -- -- 74
2019-11-19 13:00:00 5.3 4 Sudeste 17 Sur 0 -- -- 74
2019-11-19 12:00:00 6.2 3 Nordeste 8 Sur 0 -- -- 70
2019-11-19 11:00:00 5.6 3 Sur 6 Sur 0 -- -- 72
2019-11-19 10:00:00 1.2 2 Nordeste 5 Sudeste 0 -- -- 85
2019-11-19 09:00:00 -2 3 Nordeste 8 Oeste 0 -- -- 96
2019-11-19 08:00:00 -2.4 4 Oeste 6 Sudeste 0 -- -- 98
2019-11-19 07:00:00 -1.9 0 Calma 8 Norte 0 -- -- 97
2019-11-19 06:00:00 -2 8 Norte 11 Norte 0 -- -- 96
2019-11-19 05:00:00 -2.1 9 Norte 13 Norte 0 -- -- 98
2019-11-19 04:00:00 -2.3 0 Calma 5 Nordeste 0 -- -- 98
2019-11-19 03:00:00 -1.2 0 Calma 7 Noroeste 0 -- -- 97
2019-11-19 02:00:00 -1.6 3 Norte 7 Sudeste 0 -- -- 96
2019-11-19 01:00:00 -0.9 3 Sur 6 Nordeste 0 -- -- 95
2019-11-19 00:00:00 0.4 0 Calma 12 Norte 0 -- -- 94
2019-11-18 23:00:00 0.1 7 Norte 10 Norte 0 -- -- 95
2019-11-18 22:00:00 0.8 4 Nordeste 13 Norte 0 -- -- 92
2019-11-18 21:00:00 1.1 10 Norte 13 Norte 0 -- -- 90
2019-11-18 20:00:00 2.4 7 Nordeste 15 Norte 0 -- -- 86
2019-11-18 19:00:00 3.3 7 Noroeste 13 Oeste 0 -- -- 85
2019-11-18 18:00:00 5.5 6 Noroeste 21 Norte 0 -- -- 76
2019-11-18 17:00:00 8.9 13 Noroeste 23 Noroeste 0 -- -- 60
2019-11-18 16:00:00 9.1 17 Noroeste 28 Noroeste 0 -- -- 60
2019-11-18 15:00:00 9.7 16 Noroeste 33 Norte 0 -- -- 59
2019-11-18 14:00:00 9.7 24 Noroeste 36 Norte 0 -- -- 61
2019-11-18 13:00:00 8.9 21 Noroeste 36 Noroeste 0 -- -- 63
2019-11-18 12:00:00 8.6 17 Noroeste 32 Noroeste 0 -- -- 62
2019-11-18 11:00:00 7.8 15 Noroeste 28 Oeste 0 -- -- 66
2019-11-18 10:00:00 6.5 13 Noroeste 27 Noroeste 0 -- -- 70
2019-11-18 09:00:00 3.8 12 Noroeste 30 Noroeste 0 -- -- 80
2019-11-18 08:00:00 2.4 12 Noroeste 24 Oeste 0 -- -- 86
2019-11-18 07:00:00 1.9 4 Oeste 24 Noroeste 0 -- -- 89
2019-11-18 06:00:00 2.5 12 Noroeste 24 Noroeste 0 -- -- 86
2019-11-18 05:00:00 1.9 9 Oeste 15 Noroeste 0 -- -- 88
2019-11-18 04:00:00 0.8 7 Norte 12 Norte 0 -- -- 92
2019-11-18 03:00:00 2 2 Oeste 19 Oeste 0 -- -- 89
2019-11-18 02:00:00 2.9 13 Noroeste 23 Norte 0 -- -- 84
2019-11-18 01:00:00 2.9 8 Oeste 21 Noroeste 0 -- -- 84
2019-11-18 00:00:00 3.6 15 Noroeste 28 Oeste 0 -- -- 83
2019-11-17 23:00:00 3.9 14 Noroeste 35 Noroeste 0 -- -- 83
2019-11-17 22:00:00 3.9 17 Noroeste 35 Noroeste 0 -- -- 83
2019-11-17 21:00:00 4.3 17 Noroeste 38 Noroeste 0 -- -- 81
2019-11-17 20:00:00 4.7 17 Oeste 32 Oeste 0 -- -- 77
2019-11-17 19:00:00 4.8 7 Sudeste 19 Noroeste 0 -- -- 77
2019-11-17 18:00:00 4.7 8 Noroeste 51 Oeste 0 -- -- 70
2019-11-17 17:00:00 7 22 Noroeste 45 Oeste 0 -- -- 68
2019-11-17 16:00:00 8.9 18 Noroeste 33 Noroeste 0.2 -- -- 66
2019-11-17 15:00:00 10 14 Noroeste 39 Oeste 0 -- -- 68
2019-11-17 14:00:00 10 20 Oeste 33 Oeste 0 -- -- 68
2019-11-17 13:00:00 10.2 21 Oeste 33 Oeste 0 -- -- 70
2019-11-17 12:00:00 8.2 21 Oeste 37 Sudoeste 0 -- -- 81
2019-11-17 11:00:00 9.6 11 Oeste 24 Oeste 0 -- -- 80
2019-11-17 10:00:00 3.5 3 Sur 10 Oeste 0.4 -- -- 97
2019-11-17 09:00:00 3 5 Norte 10 Noroeste 0.2 -- -- 98
2019-11-17 08:00:00 2.8 0 Calma 8 Sur 0 -- -- 98
2019-11-17 07:00:00 2.9 3 Noroeste 5 Norte 0.2 -- -- 97
2019-11-17 06:00:00 2.6 3 Nordeste 7 Norte 0 -- -- 96
2019-11-17 05:00:00 2.6 5 Sur 10 Sudeste 0 -- -- 95
2019-11-17 04:00:00 2.9 7 Norte 18 Oeste 0 -- -- 95
2019-11-17 03:00:00 3.7 10 Oeste 19 Oeste 0 -- -- 94
2019-11-17 02:00:00 2.8 4 Norte 13 Noroeste 0 -- -- 92
2019-11-17 01:00:00 3.1 8 Oeste 17 Oeste 0 -- -- 92
2019-11-17 00:00:00 3 4 Noroeste 14 Noroeste 0 -- -- 90
2019-11-16 23:00:00 2.8 9 Noroeste 22 Oeste 0 -- -- 89
2019-11-16 22:00:00 3.2 9 Oeste 19 Oeste 0 -- -- 84
2019-11-16 21:00:00 3.2 14 Oeste 24 Oeste 0 -- -- 84
2019-11-16 20:00:00 2.9 3 Sudoeste 13 Sudoeste 0 -- -- 82
2019-11-16 19:00:00 3.3 7 Sudoeste 18 Oeste 0 -- -- 78
2019-11-16 18:00:00 3 12 Oeste 26 Oeste 0 -- -- 79
2019-11-16 17:00:00 3.7 8 Oeste 32 Noroeste 0 -- -- 80
2019-11-16 16:00:00 4.3 11 Sudoeste 45 Noroeste 0 -- -- 70
2019-11-16 15:00:00 6 14 Noroeste 36 Norte 0 -- -- 71
2019-11-16 14:00:00 5.7 13 Noroeste 28 Oeste 0 -- -- 70
2019-11-16 13:00:00 5.4 14 Oeste 28 Oeste 0 -- -- 70
2019-11-16 12:00:00 5.8 14 Noroeste 29 Oeste 0 -- -- 69
2019-11-16 11:00:00 4.6 17 Oeste 35 Oeste 0 -- -- 76
2019-11-16 10:00:00 4.6 18 Oeste 34 Oeste 0 -- -- 77
2019-11-16 09:00:00 2 9 Oeste 23 Oeste 0 -- -- 87
2019-11-16 08:00:00 -0.6 3 Este 20 Oeste 0 -- -- 91
2019-11-16 07:00:00 0.3 13 Oeste 25 Noroeste 0 -- -- 89
2019-11-16 06:00:00 0.8 17 Oeste 27 Oeste 0 -- -- 86
2019-11-16 05:00:00 0.3 8 Oeste 26 Oeste 0 -- -- 88
2019-11-16 04:00:00 0.5 11 Oeste 25 Oeste 0 -- -- 90
2019-11-16 03:00:00 0.9 15 Noroeste 28 Noroeste 0 -- -- 87
2019-11-16 02:00:00 0.7 16 Noroeste 31 Noroeste 0 -- -- 90
2019-11-16 01:00:00 1.1 15 Noroeste 28 Noroeste 0 -- -- 87
2019-11-16 00:00:00 1.4 16 Noroeste 30 Noroeste 0 -- -- 86
2019-11-15 23:00:00 1.2 12 Noroeste 27 Oeste 0 -- -- 86
2019-11-15 22:00:00 1.3 10 Noroeste 24 Noroeste 0 -- -- 88
2019-11-15 21:00:00 1.3 15 Noroeste 28 Noroeste 0 -- -- 87
2019-11-15 20:00:00 1.6 15 Noroeste 26 Noroeste 0 -- -- 87
2019-11-15 19:00:00 1.6 10 Noroeste 32 Noroeste 0 -- -- 88
2019-11-15 18:00:00 2.2 18 Noroeste 37 Noroeste 0 -- -- 82
2019-11-15 17:00:00 4.2 19 Noroeste 35 Oeste 0 -- -- 76
2019-11-15 16:00:00 5.8 18 Noroeste 44 Noroeste 0 -- -- 67
2019-11-15 15:00:00 4.9 13 Noroeste 43 Oeste 0.2 -- -- 74
2019-11-15 14:00:00 5.6 24 Oeste 44 Oeste 0 -- -- 72
2019-11-15 13:00:00 5.8 18 Noroeste 43 Noroeste 0 -- -- 74
2019-11-15 12:00:00 5 21 Oeste 40 Oeste 0 -- -- 74
2019-11-15 11:00:00 4.4 15 Noroeste 36 Noroeste 0 -- -- 75
2019-11-15 10:00:00 3.3 17 Noroeste 36 Norte 0 -- -- 78
2019-11-15 09:00:00 1.6 18 Noroeste 38 Noroeste 0 -- -- 85
2019-11-15 08:00:00 0.9 20 Noroeste 37 Noroeste 0 -- -- 88
2019-11-15 07:00:00 0.8 15 Noroeste 36 Noroeste 0 -- -- 92
2019-11-15 06:00:00 0.8 12 Noroeste 30 Noroeste 0.2 -- -- 94
2019-11-15 05:00:00 1.1 12 Noroeste 38 Oeste 0 -- -- 90
2019-11-15 04:00:00 1.1 16 Noroeste 34 Noroeste 0.2 -- -- 91
2019-11-15 03:00:00 1 14 Oeste 29 Noroeste 0.4 -- -- 92
2019-11-15 02:00:00 0.8 15 Noroeste 28 Noroeste 1 -- -- 96
2019-11-15 01:00:00 0.5 16 Noroeste 41 Noroeste 1 -- -- 96
2019-11-15 00:00:00 0.9 20 Noroeste 49 Noroeste 1.8 -- -- 95
2019-11-14 23:00:00 0.6 21 Noroeste 40 Noroeste 1.8 -- -- 96
2019-11-14 22:00:00 0.7 8 Oeste 22 Noroeste 2.4 -- -- 97
2019-11-14 21:00:00 0.5 12 Oeste 23 Noroeste 0.6 -- -- 96
2019-11-14 20:00:00 0.8 11 Oeste 31 Noroeste 2 -- -- 96
2019-11-14 19:00:00 1.7 20 Noroeste 36 Noroeste 0.6 -- -- 92
2019-11-14 18:00:00 1.9 20 Noroeste 50 Noroeste 0.2 -- -- 90
2019-11-14 17:00:00 2.4 22 Noroeste 53 Noroeste 0 -- -- 87
2019-11-14 16:00:00 2.3 9 Noroeste 22 Noroeste 1.2 -- -- 94
2019-11-14 15:00:00 0.5 13 Noroeste 29 Noroeste 2.6 -- -- 98
2019-11-14 14:00:00 0.8 5 Sur 23 Oeste 2.2 -- -- 95
2019-11-14 13:00:00 0.9 19 Oeste 34 Oeste 0.4 -- -- 91
2019-11-14 12:00:00 1.1 17 Sudoeste 43 Oeste 0.4 -- -- 95
2019-11-14 11:00:00 2.9 22 Oeste 37 Oeste 0 -- -- 78
2019-11-14 10:00:00 3.5 17 Oeste 36 Oeste 0 -- -- 77
2019-11-14 09:00:00 0.9 17 Oeste 30 Oeste 0 -- -- 90
2019-11-14 08:00:00 0.6 10 Oeste 35 Noroeste 0.2 -- -- 94
2019-11-14 07:00:00 0.6 17 Noroeste 35 Noroeste 0 -- -- 93
2019-11-14 06:00:00 1.2 17 Noroeste 37 Noroeste 0 -- -- 85
2019-11-14 05:00:00 1.7 20 Noroeste 44 Noroeste 0.2 -- -- 88
2019-11-14 04:00:00 2.3 12 Noroeste 35 Noroeste 0.6 -- -- 92
2019-11-14 03:00:00 3.5 13 Noroeste 43 Noroeste 1.6 -- -- 91
2019-11-14 02:00:00 4.8 24 Oeste 50 Oeste 1 -- -- 88
2019-11-14 01:00:00 5.5 21 Noroeste 40 Oeste 1 -- -- 90
2019-11-14 00:00:00 5.9 22 Oeste 55 Oeste 0.2 -- -- 88
2019-11-13 23:00:00 6.8 28 Oeste 50 Oeste 0 -- -- 76
2019-11-13 22:00:00 6.5 19 Oeste 43 Oeste 0 -- -- 79
2019-11-13 21:00:00 7 23 Oeste 48 Oeste 0 -- -- 76
2019-11-13 20:00:00 7 12 Sudoeste 28 Sudoeste 0 -- -- 78
2019-11-13 19:00:00 7.6 12 Sudoeste 33 Oeste 0 -- -- 74
2019-11-13 18:00:00 7.9 18 Oeste 35 Noroeste 0 -- -- 71
2019-11-13 17:00:00 10.1 17 Oeste 38 Oeste 0 -- -- 67
2019-11-13 16:00:00 11.6 19 Oeste 32 Oeste 0 -- -- 65
2019-11-13 15:00:00 12.2 17 Oeste 39 Oeste 0 -- -- 63
2019-11-13 14:00:00 12.8 19 Oeste 34 Oeste 0 -- -- 62
2019-11-13 13:00:00 12.8 16 Noroeste 30 Sudoeste 0 -- -- 62
2019-11-13 12:00:00 12.9 14 Oeste 25 Sudoeste 0 -- -- 64
2019-11-13 11:00:00 13.1 8 Noroeste 27 Noroeste 0 -- -- 63
2019-11-13 10:00:00 11.5 12 Noroeste 23 Noroeste 0 -- -- 70
2019-11-13 09:00:00 8.5 15 Noroeste 34 Noroeste 0 -- -- 86
2019-11-13 08:00:00 7.5 22 Norte 35 Norte 0 -- -- 89
2019-11-13 07:00:00 7.9 19 Noroeste 31 Noroeste 0 -- -- 88
2019-11-13 06:00:00 9 17 Noroeste 41 Noroeste 0 -- -- 85
2019-11-13 05:00:00 9.2 18 Noroeste 35 Noroeste 0 -- -- 88
2019-11-13 04:00:00 9.8 17 Noroeste 31 Noroeste 0 -- -- 93
2019-11-13 03:00:00 9.2 5 Noroeste 13 Noroeste 1.2 -- -- 100
2019-11-13 02:00:00 8.7 8 Este 17 Nordeste 1 -- -- 100
2019-11-13 01:00:00 7.5 6 Este 17 Norte 2 -- -- 99
2019-11-13 00:00:00 7.2 8 Sudeste 15 Sudeste 0.8 -- -- 99
2019-11-12 23:00:00 6.9 6 Nordeste 12 Este 0.2 -- -- 99
2019-11-12 22:00:00 6.7 5 Nordeste 12 Este 0.4 -- -- 99
2019-11-12 21:00:00 6.6 4 Nordeste 10 Sur 1 -- -- 98
2019-11-12 20:00:00 6.6 4 Sur 10 Sur 2.8 -- -- 98
2019-11-12 19:00:00 6.6 6 Nordeste 12 Este 2.2 -- -- 97
2019-11-12 18:00:00 6.9 6 Nordeste 14 Este 0.8 -- -- 95
2019-11-12 17:00:00 7.9 7 Este 17 Oeste 0.2 -- -- 89
2019-11-12 16:00:00 9 10 Noroeste 19 Oeste 0 -- -- 82
2019-11-12 15:00:00 8.9 6 Oeste 17 Oeste 0 -- -- 78
2019-11-12 14:00:00 8.2 11 Oeste 21 Oeste 0 -- -- 76
2019-11-12 13:00:00 7.9 11 Oeste 24 Noroeste 0 -- -- 76
2019-11-12 12:00:00 7.1 13 Oeste 26 Oeste 0 -- -- 79
2019-11-12 11:00:00 6.4 13 Oeste 28 Oeste 0 -- -- 79
2019-11-12 10:00:00 5.7 11 Oeste 23 Noroeste 0 -- -- 81
2019-11-12 09:00:00 4.5 3 Noroeste 17 Noroeste 0 -- -- 84
2019-11-12 08:00:00 4.2 11 Oeste 25 Oeste 0 -- -- 80
2019-11-12 07:00:00 4.4 13 Oeste 27 Oeste 0 -- -- 80
2019-11-12 06:00:00 4.3 14 Oeste 25 Noroeste 0 -- -- 78
2019-11-12 05:00:00 4.5 11 Oeste 31 Oeste 0 -- -- 75
2019-11-12 04:00:00 4.5 13 Oeste 22 Oeste 0 -- -- 74
2019-11-12 03:00:00 4.4 10 Oeste 25 Noroeste 0 -- -- 74
2019-11-12 02:00:00 4.1 14 Noroeste 27 Oeste 0 -- -- 74
2019-11-12 01:00:00 4 14 Oeste 23 Oeste 0 -- -- 76
2019-11-12 00:00:00 3.2 13 Oeste 23 Noroeste 0 -- -- 81
2019-11-11 23:00:00 4.1 12 Noroeste 19 Oeste 0 -- -- 75
2019-11-11 22:00:00 3.6 10 Noroeste 19 Noroeste 0 -- -- 80
2019-11-11 21:00:00 4.2 12 Noroeste 19 Noroeste 0 -- -- 77
2019-11-11 20:00:00 5.1 11 Oeste 18 Noroeste 0 -- -- 73
2019-11-11 19:00:00 6 11 Noroeste 16 Oeste 0 -- -- 69
2019-11-11 18:00:00 7.1 7 Noroeste 23 Norte 0 -- -- 65
2019-11-11 17:00:00 9.2 16 Norte 35 Norte 0 -- -- 56
2019-11-11 16:00:00 12 16 Norte 35 Noroeste 0 -- -- 51
2019-11-11 15:00:00 13.3 19 Norte 37 Norte 0 -- -- 49
2019-11-11 14:00:00 13.5 20 Norte 40 Norte 0 -- -- 44
2019-11-11 13:00:00 13.7 27 Norte 39 Norte 0 -- -- 50
2019-11-11 12:00:00 12.4 18 Norte 46 Noroeste 0 -- -- 70
2019-11-11 11:00:00 12 28 Norte 43 Norte 0 -- -- 74
2019-11-11 10:00:00 10.5 22 Noroeste 37 Noroeste 0 -- -- 81
2019-11-11 09:00:00 5.2 4 Sudeste 9 Sudeste 0 -- -- 92
2019-11-11 08:00:00 4.4 4 Sudeste 17 Sudeste 0 -- -- 94
2019-11-11 07:00:00 6.7 6 Oeste 19 Noroeste 0 -- -- 93
2019-11-11 06:00:00 6.7 4 Norte 15 Oeste 0 -- -- 94
2019-11-11 05:00:00 6.6 6 Noroeste 17 Oeste 0 -- -- 93
2019-11-11 04:00:00 6.8 5 Noroeste 18 Noroeste 0 -- -- 89
2019-11-11 03:00:00 4.4 6 Norte 12 Este 0 -- -- 93
2019-11-11 02:00:00 4 9 Este 12 Este 0 -- -- 92
2019-11-11 01:00:00 4.3 6 Sur 21 Oeste 0 -- -- 89
2019-11-11 00:00:00 4.9 9 Noroeste 17 Noroeste 0 -- -- 86
2019-11-10 23:00:00 4.6 9 Oeste 17 Norte 0 -- -- 86
2019-11-10 22:00:00 3.9 7 Norte 21 Noroeste 0 -- -- 87
2019-11-10 21:00:00 3.9 10 Noroeste 17 Oeste 0 -- -- 87
2019-11-10 20:00:00 4 5 Sudoeste 24 Oeste 0 -- -- 86
2019-11-10 19:00:00 4.6 12 Noroeste 21 Noroeste 0 -- -- 83
2019-11-10 18:00:00 5.1 9 Oeste 30 Oeste 0 -- -- 81
2019-11-10 17:00:00 6.2 14 Oeste 32 Noroeste 0 -- -- 76
2019-11-10 16:00:00 5.7 14 Noroeste 39 Noroeste 0.2 -- -- 78
2019-11-10 15:00:00 4.6 17 Noroeste 41 Noroeste 0 -- -- 85
2019-11-10 14:00:00 5.2 23 Noroeste 40 Noroeste 0 -- -- 83
2019-11-10 13:00:00 3.4 15 Noroeste 42 Noroeste 0.2 -- -- 90
2019-11-10 12:00:00 3.8 17 Noroeste 36 Oeste 0.2 -- -- 87
2019-11-10 11:00:00 4.2 14 Oeste 23 Noroeste 0.2 -- -- 88
2019-11-10 10:00:00 3.6 16 Oeste 36 Oeste 0 -- -- 89
2019-11-10 09:00:00 4.1 15 Noroeste 32 Noroeste 0 -- -- 80
2019-11-10 08:00:00 3 7 Oeste 26 Noroeste 0 -- -- 88
2019-11-10 07:00:00 2.8 12 Oeste 20 Oeste 0 -- -- 90
2019-11-10 06:00:00 2.9 13 Noroeste 35 Noroeste 0 -- -- 87
2019-11-10 05:00:00 2.8 13 Noroeste 23 Oeste 0 -- -- 86
2019-11-10 04:00:00 3 13 Noroeste 32 Noroeste 0 -- -- 81
2019-11-10 03:00:00 3.3 17 Noroeste 44 Noroeste 0 -- -- 79
2019-11-10 02:00:00 3.4 16 Noroeste 31 Noroeste 0 -- -- 78
2019-11-10 01:00:00 3.3 16 Oeste 35 Oeste 0 -- -- 84
2019-11-10 00:00:00 4.2 15 Noroeste 37 Noroeste 0 -- -- 74